Flight Track Log - Related Links

Times and Time Zones

All times are in EDT time to prevent confusion due to time zone crossing. See the CSN6834 flight status page for this flight to view local times or setup timezone preferences in your user account.

Time Position Orientation Groundspeed Altitude Reporting Facility
EDT Latitude Longitude Course Direction KTS MPH feet Rate Location/Type
Wed 04:25:00 AM 44.2339 129.0899 230° Southwest  Level Estimated
Wed 04:26:00 AM 44.1756 128.9947 230° Southwest  Level Estimated
Wed 04:27:00 AM 44.1172 128.8996 229° Southwest  Level Estimated
Wed 04:28:00 AM 44.0588 128.8048 229° Southwest  Level Estimated
Wed 04:29:00 AM 44.0003 128.7101 229° Southwest  Level Estimated
Wed 04:30:00 AM 43.9417 128.6156 229° Southwest  Level Estimated
Wed 04:31:00 AM 43.8830 128.5213 229° Southwest  Level Estimated
Wed 04:32:00 AM 43.8243 128.4272 229° Southwest  Level Estimated
Wed 04:33:00 AM 43.7655 128.3332 229° Southwest  Level Estimated
Wed 04:34:00 AM 43.7066 128.2395 229° Southwest  Level Estimated
Wed 04:35:00 AM 43.6476 128.1459 229° Southwest  Level Estimated
Wed 04:36:00 AM 43.5885 128.0525 229° Southwest  Level Estimated
Wed 04:37:00 AM 43.5294 127.9593 229° Southwest  Level Estimated
Wed 04:38:00 AM 43.4702 127.8663 229° Southwest  Level Estimated
Wed 04:39:00 AM 43.4109 127.7735 229° Southwest  Level Estimated
Wed 04:40:00 AM 43.3516 127.6808 229° Southwest  Level Estimated
Wed 04:41:00 AM 43.2921 127.5883 229° Southwest  Level Estimated
Wed 04:42:00 AM 43.2326 127.4961 229° Southwest  Level Estimated
Wed 04:43:00 AM 43.1730 127.4040 228° Southwest  Level Estimated
Wed 04:44:00 AM 43.1134 127.3120 228° Southwest  Level Estimated
Wed 04:45:00 AM 43.0537 127.2203 228° Southwest  Level Estimated
Wed 04:46:00 AM 42.9939 127.1287 228° Southwest  Level Estimated
Wed 04:47:00 AM 42.9340 127.0373 228° Southwest  Level Estimated
Wed 04:48:00 AM 42.8741 126.9461 228° Southwest  Level Estimated
Wed 04:49:00 AM 42.8140 126.8550 228° Southwest  Level Estimated
Wed 04:50:00 AM 42.7540 126.7642 228° Southwest  Level Estimated
Wed 04:51:00 AM 42.6938 126.6735 228° Southwest  Level Estimated
Wed 04:52:00 AM 42.6336 126.5830 228° Southwest  Level Estimated
Wed 04:53:00 AM 42.5733 126.4926 228° Southwest  Level Estimated
Wed 04:54:00 AM 42.5129 126.4025 228° Southwest  Level Estimated
Wed 04:55:00 AM 42.4524 126.3125 228° Southwest  Level Estimated
Wed 04:56:00 AM 42.3919 126.2227 228° Southwest  Level Estimated
Wed 04:57:00 AM 42.3313 126.1330 228° Southwest  Level Estimated
Wed 04:58:00 AM 42.2707 126.0436 228° Southwest  Level Estimated
Wed 04:59:00 AM 42.2100 125.9543 227° Southwest  Level Estimated
Wed 05:00:00 AM 42.1492 125.8651 227° Southwest  Level Estimated
Wed 05:01:00 AM 42.0883 125.7762 227° Southwest  Level Estimated
Wed 05:02:00 AM 42.0274 125.6874 227° Southwest  Level Estimated
Wed 05:03:00 AM 41.9664 125.5988 227° Southwest  Level Estimated
Wed 05:04:00 AM 41.9053 125.5103 227° Southwest  Level Estimated
Wed 05:05:00 AM 41.8442 125.4221 227° Southwest  Level Estimated
Wed 05:06:00 AM 41.7830 125.3340 227° Southwest  Level Estimated
Wed 05:07:00 AM 41.7217 125.2460 227° Southwest  Level Estimated
Wed 05:08:00 AM 41.6604 125.1582 227° Southwest  Level Estimated
Wed 05:09:00 AM 41.5990 125.0706 227° Southwest  Level Estimated
Wed 05:10:00 AM 41.5375 124.9832 227° Southwest  Level Estimated
Wed 05:11:00 AM 41.4760 124.8959 227° Southwest  Level Estimated
Wed 05:12:00 AM 41.4144 124.8088 227° Southwest  Level Estimated
Wed 05:13:00 AM 41.3527 124.7219 227° Southwest  Level Estimated
Wed 05:14:00 AM 41.2910 124.6351 227° Southwest  Level Estimated
Wed 05:15:00 AM 41.2292 124.5485 227° Southwest  Level Estimated
Wed 05:16:00 AM 41.1673 124.4621 226° Southwest  Level Estimated
Wed 05:17:00 AM 41.1054 124.3758 226° Southwest  Level Estimated
Wed 05:18:00 AM 41.0434 124.2897 226° Southwest  Level Estimated
Wed 05:19:00 AM 40.9814 124.2037 226° Southwest  Level Estimated
Wed 05:20:00 AM 40.9193 124.1179 226° Southwest  Level Estimated
Wed 05:21:00 AM 40.8571 124.0323 226° Southwest  Level Estimated
Wed 05:22:00 AM 40.7948 123.9468 226° Southwest  Level Estimated
Wed 05:23:00 AM 40.7325 123.8615 226° Southwest  Level Estimated
Wed 05:24:00 AM 40.6702 123.7763 226° Southwest  Level Estimated
Wed 05:25:00 AM 40.6077 123.6913 226° Southwest  Level Estimated
Wed 05:26:00 AM 40.5452 123.6065 226° Southwest  Level Estimated
Wed 05:27:00 AM 40.4827 123.5218 226° Southwest  Level Estimated
Wed 05:28:00 AM 40.4201 123.4373 226° Southwest  Level Estimated
Wed 05:29:00 AM 40.3574 123.3529 226° Southwest  Level Estimated
Wed 05:30:00 AM 40.2946 123.2687 226° Southwest  Level Estimated
Wed 05:31:00 AM 40.2318 123.1847 226° Southwest  Level Estimated
Wed 05:32:00 AM 40.1690 123.1008 226° Southwest  Level Estimated
Wed 05:33:00 AM 40.1060 123.0170 226° Southwest  Level Estimated
Wed 05:34:00 AM 40.0431 122.9334 225° Southwest  Level Estimated
Wed 05:35:00 AM 39.9800 122.8500 225° Southwest  Level Estimated
Wed 05:36:00 AM 39.9169 122.7667 225° Southwest  Level Estimated
Wed 05:37:00 AM 39.8538 122.6836 225° Southwest  Level Estimated
Wed 05:38:00 AM 39.7905 122.6006 225° Southwest  Level Estimated
Wed 05:39:00 AM 39.7273 122.5178 225° Southwest  Level Estimated
Wed 05:40:00 AM 39.6639 122.4352 225° Southwest  Level Estimated
Wed 05:41:00 AM 39.6005 122.3526 225° Southwest  Level Estimated
Wed 05:42:00 AM 39.5371 122.2703 225° Southwest  Level Estimated
Wed 05:43:00 AM 39.4735 122.1881 225° Southwest  Level Estimated
Wed 05:44:00 AM 39.4100 122.1060 225° Southwest  Level Estimated
Wed 05:45:00 AM 39.3464 122.0241 225° Southwest  Level Estimated
Wed 05:46:00 AM 39.2827 121.9423 225° Southwest  Level Estimated
Wed 05:47:00 AM 39.2189 121.8607 225° Southwest  Level Estimated
Wed 05:48:00 AM 39.1551 121.7792 225° Southwest  Level Estimated
Wed 05:49:00 AM 39.0913 121.6979 225° Southwest  Level Estimated
Wed 05:50:00 AM 39.0274 121.6167 225° Southwest  Level Estimated
Wed 05:51:00 AM 38.9657 121.5386 225° Southwest  Level Estimated
Wed 05:52:00 AM 38.9657 121.5386 North  Level Estimated
Wed 05:53:00 AM 38.9657 121.5386 North  Level Estimated
Wed 05:54:00 AM 38.9657 121.5386 North  Level Estimated

Login

Don't have an account? Register now (free) for customized features, flight alerts, and more!